createdAt,value
2018-05-31T00:00:47.223Z,24.90
2018-05-31T00:01:50.553Z,24.88
2018-05-31T00:02:53.885Z,24.88
2018-05-31T00:03:57.211Z,24.87
2018-05-31T00:05:00.561Z,24.86
2018-05-31T00:06:04.098Z,24.85
2018-05-31T00:07:07.420Z,24.84
2018-05-31T00:08:10.733Z,24.83
2018-05-31T00:09:14.061Z,24.81
2018-05-31T00:10:17.427Z,24.80
2018-05-31T00:11:20.742Z,24.80
2018-05-31T00:12:24.074Z,24.79
2018-05-31T00:13:27.396Z,24.78
2018-05-31T00:14:30.726Z,24.77
2018-05-31T00:15:34.074Z,24.76
2018-05-31T00:16:37.412Z,24.76
2018-05-31T00:17:40.743Z,24.75
2018-05-31T00:18:44.088Z,24.73
2018-05-31T00:19:47.394Z,24.72
2018-05-31T00:20:50.752Z,24.71
2018-05-31T00:21:54.065Z,24.69
2018-05-31T00:22:57.381Z,24.69
2018-05-31T00:24:00.703Z,24.66
2018-05-31T00:25:04.072Z,24.66
2018-05-31T00:26:07.420Z,24.64
2018-05-31T00:27:10.745Z,24.63
2018-05-31T00:28:14.071Z,24.62
2018-05-31T00:29:17.416Z,24.61
2018-05-31T00:30:20.735Z,24.60
2018-05-31T00:31:24.082Z,24.59
2018-05-31T00:32:27.421Z,24.58
2018-05-31T00:33:30.748Z,24.57
2018-05-31T00:34:34.068Z,24.57
2018-05-31T00:35:37.382Z,24.56
2018-05-31T00:36:40.739Z,24.55
2018-05-31T00:37:44.059Z,24.54
2018-05-31T00:38:47.388Z,24.53
2018-05-31T00:41:00.330Z,24.51
2018-05-31T00:42:03.685Z,24.50
2018-05-31T00:43:07.000Z,24.49
2018-05-31T00:44:10.328Z,24.48
2018-05-31T00:45:13.652Z,24.48
2018-05-31T00:46:16.987Z,24.48
2018-05-31T00:47:20.390Z,24.47
2018-05-31T00:48:23.700Z,24.47
2018-05-31T00:49:27.200Z,24.47
2018-05-31T00:50:30.518Z,24.47
2018-05-31T00:51:33.835Z,24.46
2018-05-31T00:52:37.192Z,24.45
2018-05-31T00:53:40.528Z,24.45
2018-05-31T00:54:43.865Z,24.44
2018-05-31T00:55:58.829Z,24.44
2018-05-31T00:57:02.143Z,24.41
2018-05-31T00:58:05.488Z,24.40
2018-05-31T00:59:08.822Z,24.40
2018-05-31T01:00:12.143Z,24.39
2018-05-31T01:01:15.461Z,24.39
2018-05-31T01:02:18.782Z,24.39
2018-05-31T01:03:22.132Z,24.39
2018-05-31T01:04:25.451Z,24.39
2018-05-31T01:05:28.789Z,24.39
2018-05-31T01:06:32.224Z,24.39
2018-05-31T01:07:35.580Z,24.40
2018-05-31T01:08:38.932Z,24.40
2018-05-31T01:09:42.269Z,24.41
2018-05-31T01:10:45.592Z,24.42
2018-05-31T01:11:48.929Z,24.41
2018-05-31T01:12:52.252Z,24.41
2018-05-31T01:13:55.679Z,24.43
2018-05-31T01:14:59.009Z,24.42
2018-05-31T01:16:02.327Z,24.42
2018-05-31T01:17:05.655Z,24.42
2018-05-31T01:18:08.979Z,24.42
2018-05-31T01:19:12.339Z,24.42
2018-05-31T01:20:15.671Z,24.43
2018-05-31T01:21:18.995Z,24.43
2018-05-31T01:22:22.323Z,24.43
2018-05-31T01:23:25.643Z,24.42
2018-05-31T01:24:29.003Z,24.42
2018-05-31T01:25:32.318Z,24.42
2018-05-31T01:26:35.631Z,24.40
2018-05-31T01:27:38.949Z,24.40
2018-05-31T01:28:42.285Z,24.38
2018-05-31T01:29:45.633Z,24.38
2018-05-31T01:30:48.956Z,24.36
2018-05-31T01:31:52.280Z,24.35
2018-05-31T01:32:55.598Z,24.35
2018-05-31T01:33:58.921Z,24.34
2018-05-31T01:35:02.264Z,24.33
2018-05-31T01:36:05.636Z,24.33
2018-05-31T01:37:08.989Z,24.32
2018-05-31T01:38:23.880Z,24.31
2018-05-31T01:39:27.216Z,24.30
2018-05-31T01:40:30.555Z,24.29
2018-05-31T01:41:33.900Z,24.28
2018-05-31T01:42:37.242Z,24.28
2018-05-31T01:43:40.568Z,24.27
2018-05-31T01:44:43.944Z,24.26
2018-05-31T01:45:47.328Z,24.26
2018-05-31T01:46:50.639Z,24.25
2018-05-31T01:47:53.988Z,24.24
2018-05-31T01:48:57.312Z,24.23
2018-05-31T01:50:00.637Z,24.23
2018-05-31T01:51:03.996Z,24.22
2018-05-31T01:52:07.328Z,24.21
2018-05-31T01:53:10.663Z,24.20
2018-05-31T01:54:13.995Z,24.18
2018-05-31T01:55:17.327Z,24.17
2018-05-31T01:56:20.683Z,24.16
2018-05-31T01:57:24.012Z,24.14
2018-05-31T01:58:27.339Z,24.13
2018-05-31T01:59:30.672Z,24.13
2018-05-31T02:00:34.000Z,24.12
2018-05-31T02:01:37.341Z,24.10
2018-05-31T02:02:40.672Z,24.10
2018-05-31T02:03:44.001Z,24.09
2018-05-31T02:04:47.319Z,24.07
2018-05-31T02:06:00.564Z,24.07
2018-05-31T02:07:04.213Z,24.05
2018-05-31T02:08:07.541Z,24.04
2018-05-31T02:09:10.878Z,24.04
2018-05-31T02:10:14.202Z,24.04
2018-05-31T02:11:17.593Z,24.03
2018-05-31T02:12:20.943Z,24.03
2018-05-31T02:13:24.264Z,24.02
2018-05-31T02:14:27.578Z,24.02
2018-05-31T02:15:30.910Z,24.01
2018-05-31T02:16:34.234Z,24.01
2018-05-31T02:17:37.619Z,24.00
2018-05-31T02:18:40.966Z,24.01
2018-05-31T02:19:44.292Z,24.01
2018-05-31T02:20:47.615Z,24.01
2018-05-31T02:21:50.950Z,24.01
2018-05-31T02:22:54.312Z,24.00
2018-05-31T02:23:57.634Z,24.00
2018-05-31T02:25:00.947Z,24.00
2018-05-31T02:26:04.276Z,23.99
2018-05-31T02:27:07.590Z,23.99
2018-05-31T02:28:10.951Z,23.99
2018-05-31T02:29:14.269Z,23.99
2018-05-31T02:30:17.583Z,23.99
2018-05-31T02:31:20.908Z,23.98
2018-05-31T02:32:24.223Z,23.99
2018-05-31T02:33:27.577Z,23.99
2018-05-31T02:34:30.897Z,23.99
2018-05-31T02:35:34.227Z,24.00
2018-05-31T02:36:37.539Z,24.00
2018-05-31T02:37:40.869Z,24.00
2018-05-31T02:38:44.212Z,24.02
2018-05-31T02:39:47.530Z,24.01
2018-05-31T02:40:50.962Z,24.02
2018-05-31T02:41:54.293Z,24.03
2018-05-31T02:42:57.608Z,24.03
2018-05-31T02:44:00.964Z,24.04
2018-05-31T02:45:04.351Z,24.05
2018-05-31T02:46:08.020Z,24.05
2018-05-31T02:47:11.668Z,24.05
2018-05-31T02:48:15.006Z,24.06
2018-05-31T02:49:18.378Z,24.06
2018-05-31T02:50:21.697Z,24.06
2018-05-31T02:51:25.008Z,24.05
2018-05-31T02:52:28.342Z,24.05
2018-05-31T02:53:31.665Z,24.04
2018-05-31T02:54:35.040Z,24.03
2018-05-31T02:55:38.366Z,24.03
2018-05-31T02:56:41.712Z,24.01
2018-05-31T02:57:45.040Z,24.01
2018-05-31T02:58:48.360Z,23.99
2018-05-31T02:59:51.710Z,23.99
2018-05-31T03:00:55.037Z,23.97
2018-05-31T03:01:58.353Z,23.96
2018-05-31T03:03:01.749Z,23.95
2018-05-31T03:04:05.063Z,23.92
2018-05-31T03:05:08.414Z,23.90
2018-05-31T03:06:11.737Z,23.88
2018-05-31T03:07:15.324Z,23.86
2018-05-31T03:08:18.607Z,23.85
2018-05-31T03:09:21.923Z,23.84
2018-05-31T03:10:25.270Z,23.83
2018-05-31T03:11:28.600Z,23.82
2018-05-31T03:12:31.923Z,23.81
2018-05-31T03:13:35.243Z,23.80
2018-05-31T03:14:38.559Z,23.80
2018-05-31T03:15:41.997Z,23.79
2018-05-31T03:16:45.333Z,23.79
2018-05-31T03:17:48.685Z,23.78
2018-05-31T03:18:52.028Z,23.78
2018-05-31T03:19:55.353Z,23.77
2018-05-31T03:20:58.781Z,23.76
2018-05-31T03:22:02.095Z,23.75
2018-05-31T03:23:05.581Z,23.75
2018-05-31T03:24:08.967Z,23.74
2018-05-31T03:25:12.283Z,23.75
2018-05-31T03:26:15.853Z,23.74
2018-05-31T03:27:19.192Z,23.74
2018-05-31T03:28:22.543Z,23.74
2018-05-31T03:29:25.885Z,23.74
2018-05-31T03:30:29.198Z,23.74
2018-05-31T03:31:32.556Z,23.73
2018-05-31T03:32:35.878Z,23.73
2018-05-31T03:33:39.236Z,23.73
2018-05-31T03:34:42.552Z,23.73
2018-05-31T03:35:45.875Z,23.71
2018-05-31T03:36:49.466Z,23.71
2018-05-31T03:37:52.823Z,23.71
2018-05-31T03:38:56.147Z,23.71
2018-05-31T03:39:59.484Z,23.71
2018-05-31T03:41:02.813Z,23.71
2018-05-31T03:42:06.167Z,23.71
2018-05-31T03:43:09.483Z,23.72
2018-05-31T03:44:12.839Z,23.71
2018-05-31T03:45:16.155Z,23.72
2018-05-31T03:46:19.475Z,23.72
2018-05-31T03:47:22.844Z,23.72
2018-05-31T03:48:26.143Z,23.73
2018-05-31T03:49:29.467Z,23.74
2018-05-31T03:50:32.819Z,23.74
2018-05-31T03:51:36.149Z,23.74
2018-05-31T03:52:39.521Z,23.75
2018-05-31T03:53:42.852Z,23.76
2018-05-31T03:54:46.183Z,23.76
2018-05-31T03:55:49.504Z,23.77
2018-05-31T03:56:52.842Z,23.78
2018-05-31T03:57:56.613Z,23.78
2018-05-31T03:58:59.931Z,23.79
2018-05-31T04:00:03.248Z,23.80
2018-05-31T04:01:06.565Z,23.81
2018-05-31T04:02:09.916Z,23.81
2018-05-31T04:03:13.280Z,23.82
2018-05-31T04:04:16.587Z,23.82
2018-05-31T04:05:19.922Z,23.83
2018-05-31T04:06:23.500Z,23.84
2018-05-31T04:07:27.085Z,23.84
2018-05-31T04:08:30.467Z,23.85
2018-05-31T04:09:33.780Z,23.85
2018-05-31T04:10:37.105Z,23.85
2018-05-31T04:11:40.499Z,23.85
2018-05-31T04:12:43.831Z,23.85
2018-05-31T04:13:47.185Z,23.85
2018-05-31T04:14:50.565Z,23.85
2018-05-31T04:15:54.064Z,23.85
2018-05-31T04:16:57.389Z,23.85
2018-05-31T04:18:00.717Z,23.85
2018-05-31T04:19:04.126Z,23.84
2018-05-31T04:20:07.778Z,23.83
2018-05-31T04:21:11.103Z,23.82
2018-05-31T04:22:14.406Z,23.81
2018-05-31T04:23:17.759Z,23.81
2018-05-31T04:24:21.147Z,23.80
2018-05-31T04:25:24.463Z,23.79
2018-05-31T04:26:27.777Z,23.79
2018-05-31T04:27:31.104Z,23.78
2018-05-31T04:28:34.428Z,23.78
2018-05-31T04:29:37.815Z,23.78
2018-05-31T04:30:41.137Z,23.77
2018-05-31T04:31:44.467Z,23.77
2018-05-31T04:32:47.800Z,23.76
2018-05-31T04:33:51.116Z,23.76
2018-05-31T04:34:54.471Z,23.76
2018-05-31T04:35:57.808Z,23.77
2018-05-31T04:37:01.123Z,23.78
2018-05-31T04:38:04.454Z,23.78
2018-05-31T04:39:07.768Z,23.78
2018-05-31T04:40:11.129Z,23.79
2018-05-31T04:41:14.454Z,23.79
2018-05-31T04:42:17.798Z,23.80
2018-05-31T04:43:21.128Z,23.79
2018-05-31T04:44:24.464Z,23.79
2018-05-31T04:45:27.819Z,23.79
2018-05-31T04:46:31.136Z,23.80
2018-05-31T04:47:34.452Z,23.80
2018-05-31T04:48:37.775Z,23.80
2018-05-31T04:49:41.124Z,23.79
2018-05-31T04:50:44.471Z,23.80
2018-05-31T04:51:47.775Z,23.81
2018-05-31T04:52:51.082Z,23.81
2018-05-31T04:53:54.394Z,23.82
2018-05-31T04:54:57.695Z,23.83
2018-05-31T04:56:01.058Z,23.85
2018-05-31T04:57:04.371Z,23.85
2018-05-31T04:58:07.688Z,23.86
2018-05-31T04:59:11.092Z,23.88
2018-05-31T05:00:14.399Z,23.89
2018-05-31T05:01:17.740Z,23.90
2018-05-31T05:02:21.059Z,23.91
2018-05-31T05:03:24.372Z,23.92
2018-05-31T05:04:27.687Z,23.93
2018-05-31T05:05:30.996Z,23.95
2018-05-31T05:06:34.349Z,23.96
2018-05-31T05:07:37.786Z,23.98
2018-05-31T05:08:41.423Z,24.00
2018-05-31T05:09:44.744Z,24.02
2018-05-31T05:10:48.055Z,24.05
2018-05-31T05:11:51.385Z,24.07
2018-05-31T05:12:54.683Z,24.10
2018-05-31T05:13:58.011Z,24.17
2018-05-31T05:15:01.331Z,24.26
2018-05-31T05:16:04.643Z,24.38
2018-05-31T05:17:07.963Z,24.50
2018-05-31T05:18:11.280Z,24.62
2018-05-31T05:19:14.792Z,24.74
2018-05-31T05:20:18.164Z,24.85
2018-05-31T05:21:21.463Z,24.96
2018-05-31T05:22:24.798Z,25.06
2018-05-31T05:23:28.110Z,25.17
2018-05-31T05:24:31.435Z,25.26
2018-05-31T05:25:34.755Z,25.34
2018-05-31T05:26:38.054Z,25.44
2018-05-31T05:27:41.399Z,25.53
2018-05-31T05:28:44.708Z,25.60
2018-05-31T05:29:48.011Z,25.67
2018-05-31T05:30:51.319Z,25.75
2018-05-31T05:31:54.636Z,25.81
2018-05-31T05:32:57.986Z,25.89
2018-05-31T05:34:01.306Z,25.97
2018-05-31T05:35:04.616Z,26.02
2018-05-31T05:36:07.936Z,26.07
2018-05-31T05:37:11.253Z,26.12
2018-05-31T05:38:14.625Z,26.17
2018-05-31T05:39:19.637Z,26.22
2018-05-31T05:40:23.206Z,26.27
2018-05-31T05:41:26.540Z,26.32
2018-05-31T05:42:29.899Z,26.36
2018-05-31T05:43:33.346Z,26.41
2018-05-31T05:44:36.599Z,26.44
2018-05-31T05:45:40.023Z,26.47
2018-05-31T05:46:43.348Z,26.49
2018-05-31T05:47:46.667Z,26.52
2018-05-31T05:48:49.991Z,26.54
2018-05-31T05:49:53.300Z,26.56
2018-05-31T05:50:56.611Z,26.56
2018-05-31T05:51:59.920Z,26.57
2018-05-31T05:53:03.220Z,26.59
2018-05-31T05:54:06.556Z,26.60
2018-05-31T05:55:09.867Z,26.61
2018-05-31T05:56:13.180Z,26.64
2018-05-31T05:57:16.513Z,26.64
2018-05-31T05:58:19.827Z,26.65
2018-05-31T05:59:23.179Z,26.63
2018-05-31T06:00:26.488Z,26.60
2018-05-31T06:01:29.799Z,26.57
2018-05-31T06:02:33.107Z,26.53
2018-05-31T06:03:36.422Z,26.51
2018-05-31T06:04:39.762Z,26.49
2018-05-31T06:05:43.078Z,26.46
2018-05-31T06:06:46.385Z,26.43
2018-05-31T06:07:49.929Z,26.40
2018-05-31T06:08:53.237Z,26.39
2018-05-31T06:09:56.627Z,26.37
2018-05-31T06:10:59.887Z,26.38
2018-05-31T06:12:03.197Z,26.39
2018-05-31T06:13:06.558Z,26.40
2018-05-31T06:14:09.972Z,26.43
2018-05-31T06:15:13.306Z,26.48
2018-05-31T06:16:16.614Z,26.54
2018-05-31T06:17:19.951Z,26.59
2018-05-31T06:18:23.264Z,26.68
2018-05-31T06:19:26.575Z,26.79
2018-05-31T06:20:29.894Z,26.88
2018-05-31T06:21:33.212Z,26.92
2018-05-31T06:22:36.528Z,26.95
2018-05-31T06:23:39.841Z,26.98
2018-05-31T06:24:43.150Z,27.05
2018-05-31T06:25:46.490Z,27.13
2018-05-31T06:26:49.830Z,27.18
2018-05-31T06:27:53.130Z,27.23
2018-05-31T06:28:56.530Z,27.25
2018-05-31T06:29:59.876Z,27.25
2018-05-31T06:31:03.237Z,27.24
2018-05-31T06:32:06.567Z,27.23
2018-05-31T06:33:09.859Z,27.23
2018-05-31T06:34:13.170Z,27.25
2018-05-31T06:35:16.490Z,27.28
2018-05-31T06:36:19.840Z,27.32
2018-05-31T06:37:23.207Z,27.37
2018-05-31T06:38:26.462Z,27.42
2018-05-31T06:39:29.801Z,27.47
2018-05-31T06:40:33.103Z,27.52
2018-05-31T06:41:36.453Z,27.58
2018-05-31T06:42:39.753Z,27.65
2018-05-31T06:43:43.063Z,27.71
2018-05-31T06:44:46.400Z,27.75
2018-05-31T06:45:49.765Z,27.77
2018-05-31T06:46:53.061Z,27.75
2018-05-31T06:47:56.366Z,27.74
2018-05-31T06:48:59.673Z,27.72
2018-05-31T06:50:02.994Z,27.69
2018-05-31T06:51:06.332Z,27.69
2018-05-31T06:52:09.663Z,27.68
2018-05-31T06:53:12.975Z,27.63
2018-05-31T06:54:16.374Z,27.60
2018-05-31T06:55:19.666Z,27.56
2018-05-31T06:56:23.003Z,27.53
2018-05-31T06:57:26.703Z,27.51
2018-05-31T06:58:30.706Z,27.49
2018-05-31T06:59:34.019Z,27.47
2018-05-31T07:00:37.322Z,27.45
2018-05-31T07:01:40.634Z,27.43
2018-05-31T07:02:43.963Z,27.41
2018-05-31T07:03:47.284Z,27.39
2018-05-31T07:04:50.616Z,27.39
2018-05-31T07:05:53.932Z,27.40
2018-05-31T07:06:57.251Z,27.40
2018-05-31T07:08:00.769Z,27.41
2018-05-31T07:09:04.075Z,27.41
2018-05-31T07:10:07.393Z,27.41
2018-05-31T07:11:11.064Z,27.42
2018-05-31T07:12:14.356Z,27.41
2018-05-31T07:13:17.691Z,27.42
2018-05-31T07:14:20.982Z,27.43
2018-05-31T07:15:24.304Z,27.44
2018-05-31T07:16:27.631Z,27.44
2018-05-31T07:17:30.939Z,27.46
2018-05-31T07:18:34.267Z,27.47
2018-05-31T07:19:37.572Z,27.48
2018-05-31T07:20:40.874Z,27.51
2018-05-31T07:21:44.213Z,27.53
2018-05-31T07:22:47.547Z,27.53
2018-05-31T07:23:50.947Z,27.54
2018-05-31T07:24:54.244Z,27.55
2018-05-31T07:25:57.559Z,27.56
2018-05-31T07:27:00.877Z,27.57
2018-05-31T07:28:04.198Z,27.59
2018-05-31T07:29:07.528Z,27.61
2018-05-31T07:30:10.848Z,27.62
2018-05-31T07:31:14.155Z,27.62
2018-05-31T07:32:17.473Z,27.62
2018-05-31T07:33:20.779Z,27.61
2018-05-31T07:34:24.125Z,27.60
2018-05-31T07:35:27.414Z,27.61
2018-05-31T07:36:30.740Z,27.62
2018-05-31T07:37:34.064Z,27.62
2018-05-31T07:38:37.382Z,27.63
2018-05-31T07:39:40.729Z,27.64
2018-05-31T07:40:44.282Z,27.65
2018-05-31T07:41:47.575Z,27.66
2018-05-31T07:42:50.887Z,27.65
2018-05-31T07:43:54.186Z,27.66
2018-05-31T07:44:57.530Z,27.66
2018-05-31T07:46:00.853Z,27.65
2018-05-31T07:47:04.186Z,27.64
2018-05-31T07:48:08.400Z,27.63
2018-05-31T07:49:11.720Z,27.62
2018-05-31T07:50:15.141Z,27.62
2018-05-31T07:51:18.497Z,27.61
2018-05-31T07:52:21.771Z,27.60
2018-05-31T07:53:25.089Z,27.59
2018-05-31T07:54:28.393Z,27.54
2018-05-31T07:55:31.716Z,27.51
2018-05-31T07:56:35.023Z,27.50
2018-05-31T07:57:38.350Z,27.51
2018-05-31T07:58:41.664Z,27.51
2018-05-31T07:59:44.971Z,27.53
2018-05-31T08:00:48.306Z,27.55
2018-05-31T08:01:51.599Z,27.55
2018-05-31T08:02:54.916Z,27.57
2018-05-31T08:03:58.446Z,27.59
2018-05-31T08:05:02.553Z,27.61
2018-05-31T08:06:06.527Z,27.62
2018-05-31T08:07:09.834Z,27.62
2018-05-31T08:08:13.246Z,27.62
2018-05-31T08:09:16.550Z,27.61
2018-05-31T08:10:19.855Z,27.62
2018-05-31T08:11:23.204Z,27.63
2018-05-31T08:12:26.508Z,27.65
2018-05-31T08:13:29.819Z,27.67
2018-05-31T08:14:33.140Z,27.67
2018-05-31T08:15:36.467Z,27.66
2018-05-31T08:16:39.826Z,27.64
2018-05-31T08:17:43.137Z,27.62
2018-05-31T08:18:46.455Z,27.61
2018-05-31T08:19:49.822Z,27.62
2018-05-31T08:20:53.238Z,27.64
2018-05-31T08:21:56.542Z,27.68
2018-05-31T08:22:59.851Z,27.70
2018-05-31T08:24:03.163Z,27.72
2018-05-31T08:25:06.477Z,27.73
2018-05-31T08:26:09.778Z,27.75
2018-05-31T08:27:13.107Z,27.79
2018-05-31T08:28:16.415Z,27.82
2018-05-31T08:29:21.118Z,27.84
2018-05-31T08:30:24.435Z,27.86
2018-05-31T08:31:27.932Z,27.88
2018-05-31T08:32:31.206Z,27.90
2018-05-31T08:33:34.504Z,27.92
2018-05-31T08:34:37.859Z,27.94
2018-05-31T08:35:41.173Z,27.96
2018-05-31T08:36:44.483Z,27.98
2018-05-31T08:37:47.843Z,28.00
2018-05-31T08:38:51.233Z,28.02
2018-05-31T08:39:54.539Z,28.03
2018-05-31T08:40:57.850Z,28.04
2018-05-31T08:42:01.151Z,28.05
2018-05-31T08:43:04.492Z,28.08
2018-05-31T08:44:07.830Z,28.11
2018-05-31T08:45:11.114Z,28.14
2018-05-31T08:46:14.430Z,28.16
2018-05-31T08:47:17.732Z,28.20
2018-05-31T08:48:21.076Z,28.23
2018-05-31T08:49:24.377Z,28.27
2018-05-31T08:50:27.751Z,28.28
2018-05-31T08:51:31.053Z,28.29
2018-05-31T08:52:34.354Z,28.31
2018-05-31T08:53:37.694Z,28.33
2018-05-31T08:54:41.031Z,28.37
2018-05-31T08:55:44.331Z,28.41
2018-05-31T08:56:47.642Z,28.46
2018-05-31T08:57:50.966Z,28.50
2018-05-31T08:58:54.299Z,28.52
2018-05-31T08:59:57.635Z,28.55
2018-05-31T09:01:00.949Z,28.60
2018-05-31T09:02:04.268Z,28.64
2018-05-31T09:03:07.603Z,28.69
2018-05-31T09:04:10.922Z,28.74
2018-05-31T09:05:14.231Z,28.80
2018-05-31T09:06:17.553Z,28.85
2018-05-31T09:07:20.852Z,28.91
2018-05-31T09:08:24.419Z,28.97
2018-05-31T09:09:27.799Z,29.01
2018-05-31T09:10:31.103Z,29.05
2018-05-31T09:11:34.421Z,29.08
2018-05-31T09:12:37.724Z,29.10
2018-05-31T09:13:41.040Z,29.09
2018-05-31T09:14:44.362Z,29.08
2018-05-31T09:15:47.699Z,29.06
2018-05-31T09:16:50.994Z,29.03
2018-05-31T09:17:54.303Z,29.01
2018-05-31T09:18:57.667Z,29.01
2018-05-31T09:20:01.005Z,29.02
2018-05-31T09:21:04.302Z,29.03
2018-05-31T09:22:07.615Z,29.02
2018-05-31T09:23:10.935Z,28.98
2018-05-31T09:24:14.256Z,28.93
2018-05-31T09:25:17.888Z,28.90
2018-05-31T09:26:21.202Z,28.89
2018-05-31T09:27:24.765Z,28.88
2018-05-31T09:28:28.088Z,28.88
2018-05-31T09:29:31.542Z,28.89
2018-05-31T09:30:34.878Z,28.91
2018-05-31T09:31:38.183Z,28.92
2018-05-31T09:32:41.487Z,28.94
2018-05-31T09:33:44.979Z,28.96
2018-05-31T09:34:48.288Z,28.96
2018-05-31T09:35:51.619Z,28.97
2018-05-31T09:36:54.926Z,28.99
2018-05-31T09:37:58.491Z,29.00
2018-05-31T09:39:01.806Z,29.02
2018-05-31T09:40:05.127Z,29.04
2018-05-31T09:41:08.516Z,29.05
2018-05-31T09:42:11.782Z,29.08
2018-05-31T09:43:15.101Z,29.10
2018-05-31T09:44:18.425Z,29.11
2018-05-31T09:45:21.736Z,29.11
2018-05-31T09:46:25.091Z,29.12
2018-05-31T09:47:28.402Z,29.11
2018-05-31T09:48:31.718Z,29.10
2018-05-31T09:49:35.036Z,29.10
2018-05-31T09:50:38.354Z,29.10
2018-05-31T09:51:41.696Z,29.11
2018-05-31T09:52:45.000Z,29.12
2018-05-31T09:53:48.318Z,29.14
2018-05-31T09:54:51.616Z,29.16
2018-05-31T09:55:54.929Z,29.16
2018-05-31T09:56:58.271Z,29.17
2018-05-31T09:58:01.604Z,29.17
2018-05-31T09:59:04.901Z,29.18
2018-05-31T10:00:08.229Z,29.17
2018-05-31T10:01:11.546Z,29.16
2018-05-31T10:02:14.928Z,29.13
2018-05-31T10:03:18.241Z,29.11
2018-05-31T10:04:21.541Z,29.09
2018-05-31T10:05:24.854Z,29.07
2018-05-31T10:06:28.191Z,29.05
2018-05-31T10:07:31.546Z,29.03
2018-05-31T10:08:35.051Z,29.02
2018-05-31T10:09:38.353Z,29.01
2018-05-31T10:10:41.651Z,29.00
2018-05-31T10:11:44.977Z,28.99
2018-05-31T10:12:48.329Z,28.99
2018-05-31T10:13:51.610Z,28.97
2018-05-31T10:14:54.912Z,28.96
2018-05-31T10:15:58.223Z,28.96
2018-05-31T10:17:01.540Z,28.94
2018-05-31T10:18:04.889Z,28.91
2018-05-31T10:19:08.198Z,28.88
2018-05-31T10:20:11.507Z,28.86
2018-05-31T10:21:14.803Z,28.84
2018-05-31T10:22:18.127Z,28.85
2018-05-31T10:23:21.453Z,28.87
2018-05-31T10:24:24.754Z,28.90
2018-05-31T10:25:28.084Z,28.95
2018-05-31T10:26:31.396Z,28.98
2018-05-31T10:27:34.707Z,28.99
2018-05-31T10:28:38.041Z,29.00
2018-05-31T10:29:41.395Z,29.04
2018-05-31T10:30:44.714Z,29.07
2018-05-31T10:31:48.014Z,29.12
2018-05-31T10:32:51.366Z,29.17
2018-05-31T10:33:54.707Z,29.21
2018-05-31T10:34:58.090Z,29.26
2018-05-31T10:36:01.419Z,29.30
2018-05-31T10:37:04.721Z,29.35
2018-05-31T10:38:08.030Z,29.41
2018-05-31T10:39:11.505Z,29.45
2018-05-31T10:40:14.798Z,29.50
2018-05-31T10:41:18.099Z,29.54
2018-05-31T10:42:21.470Z,29.58
2018-05-31T10:43:24.763Z,29.63
2018-05-31T10:44:28.106Z,29.68
2018-05-31T10:45:31.419Z,29.72
2018-05-31T10:46:34.769Z,29.77
2018-05-31T10:47:38.034Z,29.81
2018-05-31T10:48:41.348Z,29.84
2018-05-31T10:49:44.674Z,29.87
2018-05-31T10:50:47.981Z,29.88
2018-05-31T10:51:51.290Z,29.91
2018-05-31T10:52:54.595Z,29.91
2018-05-31T10:53:57.904Z,29.93
2018-05-31T10:55:01.272Z,29.95
2018-05-31T10:56:04.599Z,29.94
2018-05-31T10:57:07.910Z,29.94
2018-05-31T10:58:11.216Z,29.93
2018-05-31T10:59:14.543Z,29.89
2018-05-31T11:00:17.852Z,29.85
2018-05-31T11:01:21.175Z,29.82
2018-05-31T11:02:24.575Z,29.80
2018-05-31T11:03:27.902Z,29.79
2018-05-31T11:04:31.245Z,29.79
2018-05-31T11:05:34.619Z,29.77
2018-05-31T11:06:37.932Z,29.73
2018-05-31T11:07:41.278Z,29.72
2018-05-31T11:08:44.863Z,29.71
2018-05-31T11:09:48.406Z,29.73
2018-05-31T11:10:51.745Z,29.72
2018-05-31T11:11:55.080Z,29.75
2018-05-31T11:12:58.388Z,29.79
2018-05-31T11:14:01.703Z,29.81
2018-05-31T11:15:05.020Z,29.82
2018-05-31T11:16:08.372Z,29.81
2018-05-31T11:17:11.679Z,29.78
2018-05-31T11:18:14.991Z,29.75
2018-05-31T11:19:18.320Z,29.71
2018-05-31T11:20:21.678Z,29.66
2018-05-31T11:21:24.997Z,29.61
2018-05-31T11:22:28.347Z,29.57
2018-05-31T11:23:32.178Z,29.53
2018-05-31T11:24:35.497Z,29.51
2018-05-31T11:25:38.814Z,29.48
2018-05-31T11:26:42.167Z,29.47
2018-05-31T11:27:45.549Z,29.47
2018-05-31T11:28:48.849Z,29.47
2018-05-31T11:29:52.181Z,29.46
2018-05-31T11:30:55.490Z,29.44
2018-05-31T11:31:58.827Z,29.42
2018-05-31T11:33:02.133Z,29.39
2018-05-31T11:34:05.440Z,29.37
2018-05-31T11:35:08.754Z,29.36
2018-05-31T11:36:12.052Z,29.32
2018-05-31T11:37:15.391Z,29.30
2018-05-31T11:38:18.695Z,29.30
2018-05-31T11:39:22.009Z,29.30
2018-05-31T11:40:25.317Z,29.30
2018-05-31T11:41:28.629Z,29.29
2018-05-31T11:42:32.314Z,29.30
2018-05-31T11:43:35.603Z,29.29
2018-05-31T11:44:38.936Z,29.31
2018-05-31T11:45:42.282Z,29.34
2018-05-31T11:46:45.585Z,29.38
2018-05-31T11:47:48.936Z,29.44
2018-05-31T11:48:52.264Z,29.50
2018-05-31T11:49:55.590Z,29.54
2018-05-31T11:50:58.895Z,29.58
2018-05-31T11:52:02.186Z,29.62
2018-05-31T11:53:05.534Z,29.67
2018-05-31T11:54:08.836Z,29.72
2018-05-31T11:55:12.170Z,29.77
2018-05-31T11:56:15.467Z,29.79
2018-05-31T11:57:18.776Z,29.80
2018-05-31T11:58:22.131Z,29.79
2018-05-31T11:59:25.429Z,29.78
2018-05-31T12:00:28.779Z,29.78
2018-05-31T12:01:32.067Z,29.78
2018-05-31T12:02:35.467Z,29.76
2018-05-31T12:03:38.830Z,29.75
2018-05-31T12:04:42.199Z,29.74
2018-05-31T12:05:45.496Z,29.76
2018-05-31T12:06:48.834Z,29.78
2018-05-31T12:07:52.146Z,29.79
2018-05-31T12:08:55.567Z,29.82
2018-05-31T12:09:58.851Z,29.84
2018-05-31T12:11:02.150Z,29.87
2018-05-31T12:12:05.454Z,29.90
2018-05-31T12:13:08.768Z,29.94
2018-05-31T12:14:12.082Z,29.98
2018-05-31T12:15:15.435Z,30.02
2018-05-31T12:16:18.799Z,30.05
2018-05-31T12:17:22.192Z,30.08
2018-05-31T12:18:25.455Z,30.10
2018-05-31T12:19:28.773Z,30.12
2018-05-31T12:20:32.067Z,30.12
2018-05-31T12:21:35.363Z,30.11
2018-05-31T12:22:38.679Z,30.09
2018-05-31T12:23:41.982Z,30.07
2018-05-31T12:24:45.328Z,30.05
2018-05-31T12:25:48.655Z,30.01
2018-05-31T12:26:51.959Z,29.99
2018-05-31T12:27:55.276Z,29.99
2018-05-31T12:28:58.583Z,29.97
2018-05-31T12:30:01.931Z,29.93
2018-05-31T12:31:05.230Z,29.90
2018-05-31T12:32:08.568Z,29.89
2018-05-31T12:33:11.871Z,29.88
2018-05-31T12:34:15.185Z,29.87
2018-05-31T12:35:18.504Z,29.85
2018-05-31T12:36:21.888Z,29.85
2018-05-31T12:37:25.214Z,29.85
2018-05-31T12:38:28.532Z,29.85
2018-05-31T12:39:31.848Z,29.85
2018-05-31T12:40:35.196Z,29.84
2018-05-31T12:41:38.517Z,29.86
2018-05-31T12:42:42.126Z,29.88
2018-05-31T12:43:45.601Z,29.90
2018-05-31T12:44:48.903Z,29.90
2018-05-31T12:45:52.244Z,29.90
2018-05-31T12:46:55.555Z,29.87
2018-05-31T12:47:58.855Z,29.85
2018-05-31T12:49:02.161Z,29.82
2018-05-31T12:50:05.462Z,29.77
2018-05-31T12:51:08.804Z,29.71
2018-05-31T12:52:12.105Z,29.67
2018-05-31T12:53:15.413Z,29.62
2018-05-31T12:54:18.728Z,29.55
2018-05-31T12:55:22.041Z,29.48
2018-05-31T12:56:25.386Z,29.43
2018-05-31T12:57:28.715Z,29.39
2018-05-31T12:58:32.028Z,29.35
2018-05-31T12:59:35.335Z,29.35
2018-05-31T13:00:38.661Z,29.35
2018-05-31T13:01:42.000Z,29.35
2018-05-31T13:02:45.339Z,29.33
2018-05-31T13:03:48.651Z,29.34
2018-05-31T13:04:51.959Z,29.33
2018-05-31T13:05:55.284Z,29.33
2018-05-31T13:06:58.598Z,29.31
2018-05-31T13:08:01.940Z,29.29
2018-05-31T13:09:05.442Z,29.28
2018-05-31T13:10:08.762Z,29.29
2018-05-31T13:11:12.066Z,29.31
2018-05-31T13:12:15.397Z,29.34
2018-05-31T13:13:18.706Z,29.37
2018-05-31T13:14:22.015Z,29.39
2018-05-31T13:15:25.344Z,29.44
2018-05-31T13:16:28.652Z,29.49
2018-05-31T13:17:31.990Z,29.53
2018-05-31T13:18:35.303Z,29.56
2018-05-31T13:19:38.709Z,29.58
2018-05-31T13:20:42.014Z,29.62
2018-05-31T13:21:45.326Z,29.66
2018-05-31T13:22:48.679Z,29.67
2018-05-31T13:23:51.973Z,29.67
2018-05-31T13:24:55.276Z,29.67
2018-05-31T13:25:58.583Z,29.65
2018-05-31T13:27:01.895Z,29.63
2018-05-31T13:28:05.303Z,29.61
2018-05-31T13:29:08.619Z,29.59
2018-05-31T13:30:11.942Z,29.57
2018-05-31T13:31:15.283Z,29.53
2018-05-31T13:32:18.603Z,29.51
2018-05-31T13:33:21.963Z,29.50
2018-05-31T13:34:25.693Z,29.50
2018-05-31T13:35:28.992Z,29.49
2018-05-31T13:36:32.315Z,29.49
2018-05-31T13:37:35.624Z,29.47